sensor_id;sensor_type;location;lat;lon;timestamp;temperature;humidity
8953;DHT22;4511;50.890;8.054;2023-06-22T00:00:34;21.20;99.90
8953;DHT22;4511;50.890;8.054;2023-06-22T00:03:01;21.10;99.90
8953;DHT22;4511;50.890;8.054;2023-06-22T00:05:29;21.10;99.90
8953;DHT22;4511;50.890;8.054;2023-06-22T00:07:56;21.00;99.90
8953;DHT22;4511;50.890;8.054;2023-06-22T00:10:23;21.00;99.90
8953;DHT22;4511;50.890;8.054;2023-06-22T00:12:49;21.10;99.90
8953;DHT22;4511;50.890;8.054;2023-06-22T00:15:16;21.00;99.90
8953;DHT22;4511;50.890;8.054;2023-06-22T00:17:43;21.00;99.90
8953;DHT22;4511;50.890;8.054;2023-06-22T00:20:10;21.00;99.90
8953;DHT22;4511;50.890;8.054;2023-06-22T00:22:40;20.90;99.90
8953;DHT22;4511;50.890;8.054;2023-06-22T00:25:09;20.90;99.90
8953;DHT22;4511;50.890;8.054;2023-06-22T00:27:35;20.90;99.90
8953;DHT22;4511;50.890;8.054;2023-06-22T00:30:03;20.90;99.90
8953;DHT22;4511;50.890;8.054;2023-06-22T00:32:30;21.00;99.90
8953;DHT22;4511;50.890;8.054;2023-06-22T00:34:56;21.00;99.90
8953;DHT22;4511;50.890;8.054;2023-06-22T00:37:23;20.90;99.90
8953;DHT22;4511;50.890;8.054;2023-06-22T00:39:52;20.90;99.90
8953;DHT22;4511;50.890;8.054;2023-06-22T00:42:19;20.90;99.90
8953;DHT22;4511;50.890;8.054;2023-06-22T00:44:45;20.90;99.90
8953;DHT22;4511;50.890;8.054;2023-06-22T00:47:13;21.00;99.90
8953;DHT22;4511;50.890;8.054;2023-06-22T00:49:41;20.90;99.90
8953;DHT22;4511;50.890;8.054;2023-06-22T00:52:09;20.90;99.90
8953;DHT22;4511;50.890;8.054;2023-06-22T00:54:39;20.80;99.90
8953;DHT22;4511;50.890;8.054;2023-06-22T00:57:12;20.80;99.90
8953;DHT22;4511;50.890;8.054;2023-06-22T00:59:42;20.70;99.90
8953;DHT22;4511;50.890;8.054;2023-06-22T01:02:09;20.70;99.90
8953;DHT22;4511;50.890;8.054;2023-06-22T01:04:36;20.70;99.90
8953;DHT22;4511;50.890;8.054;2023-06-22T01:07:10;20.70;99.90
8953;DHT22;4511;50.890;8.054;2023-06-22T01:09:46;20.80;99.90
8953;DHT22;4511;50.890;8.054;2023-06-22T01:12:18;20.80;99.90
8953;DHT22;4511;50.890;8.054;2023-06-22T01:14:50;20.80;99.90
8953;DHT22;4511;50.890;8.054;2023-06-22T01:17:19;20.80;99.90
8953;DHT22;4511;50.890;8.054;2023-06-22T01:19:49;20.80;99.90
8953;DHT22;4511;50.890;8.054;2023-06-22T01:22:22;20.70;99.90
8953;DHT22;4511;50.890;8.054;2023-06-22T01:24:57;20.70;99.90
8953;DHT22;4511;50.890;8.054;2023-06-22T01:27:35;20.70;99.90
8953;DHT22;4511;50.890;8.054;2023-06-22T01:30:09;20.70;99.90
8953;DHT22;4511;50.890;8.054;2023-06-22T01:32:38;20.60;99.90
8953;DHT22;4511;50.890;8.054;2023-06-22T01:35:07;20.60;99.90
8953;DHT22;4511;50.890;8.054;2023-06-22T01:37:35;20.70;99.90
8953;DHT22;4511;50.890;8.054;2023-06-22T01:40:02;20.70;99.90
8953;DHT22;4511;50.890;8.054;2023-06-22T01:42:31;20.70;99.90
8953;DHT22;4511;50.890;8.054;2023-06-22T01:44:59;20.50;99.90
8953;DHT22;4511;50.890;8.054;2023-06-22T01:47:27;20.50;99.90
8953;DHT22;4511;50.890;8.054;2023-06-22T01:49:54;20.50;99.90
8953;DHT22;4511;50.890;8.054;2023-06-22T01:52:21;20.50;99.90
8953;DHT22;4511;50.890;8.054;2023-06-22T01:54:48;20.40;99.90
8953;DHT22;4511;50.890;8.054;2023-06-22T01:57:15;20.40;99.90
8953;DHT22;4511;50.890;8.054;2023-06-22T01:59:48;20.50;99.90
8953;DHT22;4511;50.890;8.054;2023-06-22T02:02:19;20.50;99.90
8953;DHT22;4511;50.890;8.054;2023-06-22T02:04:57;20.60;99.90
8953;DHT22;4511;50.890;8.054;2023-06-22T02:07:28;20.70;99.90
8953;DHT22;4511;50.890;8.054;2023-06-22T02:09:58;20.70;99.90
8953;DHT22;4511;50.890;8.054;2023-06-22T02:12:26;20.70;99.90
8953;DHT22;4511;50.890;8.054;2023-06-22T02:14:55;20.60;99.90
8953;DHT22;4511;50.890;8.054;2023-06-22T02:17:23;20.50;99.90
8953;DHT22;4511;50.890;8.054;2023-06-22T02:19:50;20.50;99.90
8953;DHT22;4511;50.890;8.054;2023-06-22T02:22:19;20.60;99.90
8953;DHT22;4511;50.890;8.054;2023-06-22T02:24:45;20.60;99.90
8953;DHT22;4511;50.890;8.054;2023-06-22T02:27:12;20.60;99.90
8953;DHT22;4511;50.890;8.054;2023-06-22T02:29:39;20.40;99.90
8953;DHT22;4511;50.890;8.054;2023-06-22T02:32:06;20.40;99.90
8953;DHT22;4511;50.890;8.054;2023-06-22T02:34:33;20.30;99.90
8953;DHT22;4511;50.890;8.054;2023-06-22T02:37:00;20.20;99.90
8953;DHT22;4511;50.890;8.054;2023-06-22T02:39:29;20.20;99.90
8953;DHT22;4511;50.890;8.054;2023-06-22T02:41:56;20.30;99.90
8953;DHT22;4511;50.890;8.054;2023-06-22T02:44:23;20.40;99.90
8953;DHT22;4511;50.890;8.054;2023-06-22T02:46:49;20.40;99.90
8953;DHT22;4511;50.890;8.054;2023-06-22T02:49:16;20.40;99.90
8953;DHT22;4511;50.890;8.054;2023-06-22T02:51:46;20.40;99.90
8953;DHT22;4511;50.890;8.054;2023-06-22T02:54:14;20.40;99.90
8953;DHT22;4511;50.890;8.054;2023-06-22T02:56:43;20.30;99.90
8953;DHT22;4511;50.890;8.054;2023-06-22T02:59:10;20.20;99.90
8953;DHT22;4511;50.890;8.054;2023-06-22T03:01:37;20.30;99.90
8953;DHT22;4511;50.890;8.054;2023-06-22T03:04:05;20.30;99.90
8953;DHT22;4511;50.890;8.054;2023-06-22T03:06:32;20.10;99.90
8953;DHT22;4511;50.890;8.054;2023-06-22T03:09:01;19.80;99.90
8953;DHT22;4511;50.890;8.054;2023-06-22T03:11:29;19.40;99.90
8953;DHT22;4511;50.890;8.054;2023-06-22T03:13:58;19.40;99.90
8953;DHT22;4511;50.890;8.054;2023-06-22T03:16:25;19.70;99.90
8953;DHT22;4511;50.890;8.054;2023-06-22T03:18:51;19.80;99.90
8953;DHT22;4511;50.890;8.054;2023-06-22T03:21:22;19.80;99.90
8953;DHT22;4511;50.890;8.054;2023-06-22T03:23:49;19.80;99.90
8953;DHT22;4511;50.890;8.054;2023-06-22T03:26:16;19.70;99.90
8953;DHT22;4511;50.890;8.054;2023-06-22T03:28:43;19.90;99.90
8953;DHT22;4511;50.890;8.054;2023-06-22T03:31:11;19.90;99.90
8953;DHT22;4511;50.890;8.054;2023-06-22T03:33:38;19.70;99.90
8953;DHT22;4511;50.890;8.054;2023-06-22T03:36:05;19.70;99.90
8953;DHT22;4511;50.890;8.054;2023-06-22T03:38:32;19.70;99.90
8953;DHT22;4511;50.890;8.054;2023-06-22T03:40:59;19.50;99.90
8953;DHT22;4511;50.890;8.054;2023-06-22T03:43:26;19.50;99.90
8953;DHT22;4511;50.890;8.054;2023-06-22T03:45:53;19.60;99.90
8953;DHT22;4511;50.890;8.054;2023-06-22T03:48:21;19.80;99.90
8953;DHT22;4511;50.890;8.054;2023-06-22T03:50:47;19.80;99.90
8953;DHT22;4511;50.890;8.054;2023-06-22T03:53:14;19.70;99.90
8953;DHT22;4511;50.890;8.054;2023-06-22T03:55:48;19.70;99.90
8953;DHT22;4511;50.890;8.054;2023-06-22T03:58:15;19.70;99.90
8953;DHT22;4511;50.890;8.054;2023-06-22T04:00:42;19.60;99.90
8953;DHT22;4511;50.890;8.054;2023-06-22T04:03:09;19.70;99.90
8953;DHT22;4511;50.890;8.054;2023-06-22T04:05:39;19.70;99.90
8953;DHT22;4511;50.890;8.054;2023-06-22T04:08:06;19.80;99.90
8953;DHT22;4511;50.890;8.054;2023-06-22T04:10:33;19.80;99.90
8953;DHT22;4511;50.890;8.054;2023-06-22T04:13:00;19.80;99.90
8953;DHT22;4511;50.890;8.054;2023-06-22T04:15:27;19.80;99.90
8953;DHT22;4511;50.890;8.054;2023-06-22T04:17:55;19.80;99.90
8953;DHT22;4511;50.890;8.054;2023-06-22T04:20:22;19.90;99.90
8953;DHT22;4511;50.890;8.054;2023-06-22T04:22:52;19.90;99.90
8953;DHT22;4511;50.890;8.054;2023-06-22T04:25:19;19.90;99.90
8953;DHT22;4511;50.890;8.054;2023-06-22T04:27:46;20.00;99.90
8953;DHT22;4511;50.890;8.054;2023-06-22T04:30:13;20.10;99.90
8953;DHT22;4511;50.890;8.054;2023-06-22T04:32:42;20.10;99.90
8953;DHT22;4511;50.890;8.054;2023-06-22T04:35:09;20.10;99.90
8953;DHT22;4511;50.890;8.054;2023-06-22T04:37:36;20.10;99.90
8953;DHT22;4511;50.890;8.054;2023-06-22T04:40:05;20.20;99.90
8953;DHT22;4511;50.890;8.054;2023-06-22T04:42:34;20.20;99.90
8953;DHT22;4511;50.890;8.054;2023-06-22T04:45:01;20.20;99.90
8953;DHT22;4511;50.890;8.054;2023-06-22T04:47:28;20.20;99.90
8953;DHT22;4511;50.890;8.054;2023-06-22T04:49:55;20.30;99.90
8953;DHT22;4511;50.890;8.054;2023-06-22T04:52:21;20.30;99.90
8953;DHT22;4511;50.890;8.054;2023-06-22T04:54:50;20.30;99.90
8953;DHT22;4511;50.890;8.054;2023-06-22T04:57:22;20.40;99.90
8953;DHT22;4511;50.890;8.054;2023-06-22T04:59:56;20.40;99.90
8953;DHT22;4511;50.890;8.054;2023-06-22T05:02:22;20.40;99.90
8953;DHT22;4511;50.890;8.054;2023-06-22T05:04:57;20.40;99.90
8953;DHT22;4511;50.890;8.054;2023-06-22T05:07:24;20.30;99.90
8953;DHT22;4511;50.890;8.054;2023-06-22T05:09:51;20.30;99.90
8953;DHT22;4511;50.890;8.054;2023-06-22T05:12:17;20.40;99.90
8953;DHT22;4511;50.890;8.054;2023-06-22T05:14:45;20.50;99.90
8953;DHT22;4511;50.890;8.054;2023-06-22T05:17:12;20.50;99.90
8953;DHT22;4511;50.890;8.054;2023-06-22T05:19:41;20.60;99.90
8953;DHT22;4511;50.890;8.054;2023-06-22T05:22:10;20.60;99.90
8953;DHT22;4511;50.890;8.054;2023-06-22T05:24:38;20.60;99.90
8953;DHT22;4511;50.890;8.054;2023-06-22T05:27:05;20.40;99.90
8953;DHT22;4511;50.890;8.054;2023-06-22T05:29:32;20.30;99.90
8953;DHT22;4511;50.890;8.054;2023-06-22T05:32:01;20.30;99.90
8953;DHT22;4511;50.890;8.054;2023-06-22T05:34:27;20.40;99.90
8953;DHT22;4511;50.890;8.054;2023-06-22T05:36:54;20.50;99.90
8953;DHT22;4511;50.890;8.054;2023-06-22T05:39:24;20.60;99.90
8953;DHT22;4511;50.890;8.054;2023-06-22T05:41:51;20.70;99.90
8953;DHT22;4511;50.890;8.054;2023-06-22T05:44:18;20.80;99.90
8953;DHT22;4511;50.890;8.054;2023-06-22T05:46:45;20.90;99.90
8953;DHT22;4511;50.890;8.054;2023-06-22T05:49:15;21.00;99.90
8953;DHT22;4511;50.890;8.054;2023-06-22T05:51:42;21.00;99.90
8953;DHT22;4511;50.890;8.054;2023-06-22T05:54:09;21.10;99.90
8953;DHT22;4511;50.890;8.054;2023-06-22T05:56:36;21.10;99.90
8953;DHT22;4511;50.890;8.054;2023-06-22T05:59:03;21.10;99.90
8953;DHT22;4511;50.890;8.054;2023-06-22T06:01:30;21.10;99.90
8953;DHT22;4511;50.890;8.054;2023-06-22T06:04:01;21.20;99.90
8953;DHT22;4511;50.890;8.054;2023-06-22T06:06:30;21.10;99.90
8953;DHT22;4511;50.890;8.054;2023-06-22T06:08:57;21.20;99.90
8953;DHT22;4511;50.890;8.054;2023-06-22T06:11:25;21.20;99.90
8953;DHT22;4511;50.890;8.054;2023-06-22T06:13:52;21.20;99.90
8953;DHT22;4511;50.890;8.054;2023-06-22T06:16:18;21.30;99.90
8953;DHT22;4511;50.890;8.054;2023-06-22T06:18:45;21.30;99.90
8953;DHT22;4511;50.890;8.054;2023-06-22T06:21:14;21.20;99.90
8953;DHT22;4511;50.890;8.054;2023-06-22T06:23:42;21.20;99.90
8953;DHT22;4511;50.890;8.054;2023-06-22T06:26:09;21.20;99.90
8953;DHT22;4511;50.890;8.054;2023-06-22T06:28:36;21.20;99.90
8953;DHT22;4511;50.890;8.054;2023-06-22T06:31:03;21.30;99.90
8953;DHT22;4511;50.890;8.054;2023-06-22T06:33:32;21.30;99.90
8953;DHT22;4511;50.890;8.054;2023-06-22T06:35:59;21.30;99.90
8953;DHT22;4511;50.890;8.054;2023-06-22T06:38:28;21.40;99.90
8953;DHT22;4511;50.890;8.054;2023-06-22T06:40:57;21.40;99.90
8953;DHT22;4511;50.890;8.054;2023-06-22T06:43:24;21.50;99.90
8953;DHT22;4511;50.890;8.054;2023-06-22T06:45:51;21.60;99.90
8953;DHT22;4511;50.890;8.054;2023-06-22T06:48:18;21.70;99.90
8953;DHT22;4511;50.890;8.054;2023-06-22T06:50:45;21.80;99.90
8953;DHT22;4511;50.890;8.054;2023-06-22T06:53:11;21.80;99.90
8953;DHT22;4511;50.890;8.054;2023-06-22T06:55:38;21.90;99.90
8953;DHT22;4511;50.890;8.054;2023-06-22T06:58:06;21.90;99.90
8953;DHT22;4511;50.890;8.054;2023-06-22T07:00:35;22.00;99.90
8953;DHT22;4511;50.890;8.054;2023-06-22T07:03:02;22.20;99.90
8953;DHT22;4511;50.890;8.054;2023-06-22T07:05:30;22.20;99.90
8953;DHT22;4511;50.890;8.054;2023-06-22T07:07:57;22.30;99.90
8953;DHT22;4511;50.890;8.054;2023-06-22T07:10:24;22.20;99.90
8953;DHT22;4511;50.890;8.054;2023-06-22T07:12:51;22.30;99.90
8953;DHT22;4511;50.890;8.054;2023-06-22T07:17:46;22.60;99.90
8953;DHT22;4511;50.890;8.054;2023-06-22T07:20:13;22.60;99.90
8953;DHT22;4511;50.890;8.054;2023-06-22T07:22:42;22.70;99.90
8953;DHT22;4511;50.890;8.054;2023-06-22T07:25:10;22.70;99.90
8953;DHT22;4511;50.890;8.054;2023-06-22T07:27:43;22.90;99.90
8953;DHT22;4511;50.890;8.054;2023-06-22T07:30:11;22.90;99.90
8953;DHT22;4511;50.890;8.054;2023-06-22T07:32:39;22.90;99.90
8953;DHT22;4511;50.890;8.054;2023-06-22T07:35:07;23.00;99.90
8953;DHT22;4511;50.890;8.054;2023-06-22T07:37:34;23.10;99.90
8953;DHT22;4511;50.890;8.054;2023-06-22T07:40:00;23.20;99.90
8953;DHT22;4511;50.890;8.054;2023-06-22T07:42:31;23.20;99.90
8953;DHT22;4511;50.890;8.054;2023-06-22T07:44:59;23.30;99.90
8953;DHT22;4511;50.890;8.054;2023-06-22T07:47:26;23.40;99.90
8953;DHT22;4511;50.890;8.054;2023-06-22T07:49:55;23.40;99.90
8953;DHT22;4511;50.890;8.054;2023-06-22T07:52:23;23.50;99.90
8953;DHT22;4511;50.890;8.054;2023-06-22T07:54:51;23.60;99.90
8953;DHT22;4511;50.890;8.054;2023-06-22T07:57:17;23.70;99.90
8953;DHT22;4511;50.890;8.054;2023-06-22T07:59:44;23.80;99.90
8953;DHT22;4511;50.890;8.054;2023-06-22T08:02:11;23.90;99.90
8953;DHT22;4511;50.890;8.054;2023-06-22T08:04:38;23.90;99.90
8953;DHT22;4511;50.890;8.054;2023-06-22T08:07:06;24.00;99.90
8953;DHT22;4511;50.890;8.054;2023-06-22T08:09:33;24.00;99.90
8953;DHT22;4511;50.890;8.054;2023-06-22T08:12:00;24.00;99.90
8953;DHT22;4511;50.890;8.054;2023-06-22T08:14:26;24.00;99.90
8953;DHT22;4511;50.890;8.054;2023-06-22T08:16:53;24.00;99.90
8953;DHT22;4511;50.890;8.054;2023-06-22T08:19:20;24.20;99.90
8953;DHT22;4511;50.890;8.054;2023-06-22T08:21:47;24.40;99.90
8953;DHT22;4511;50.890;8.054;2023-06-22T08:24:15;24.40;99.90
8953;DHT22;4511;50.890;8.054;2023-06-22T08:26:42;24.40;99.90
8953;DHT22;4511;50.890;8.054;2023-06-22T08:29:09;24.40;99.90
8953;DHT22;4511;50.890;8.054;2023-06-22T08:31:36;24.50;99.90
8953;DHT22;4511;50.890;8.054;2023-06-22T08:34:02;24.50;99.90
8953;DHT22;4511;50.890;8.054;2023-06-22T08:36:29;24.50;99.90
8953;DHT22;4511;50.890;8.054;2023-06-22T08:38:58;24.60;99.90
8953;DHT22;4511;50.890;8.054;2023-06-22T08:43:55;24.70;99.90
8953;DHT22;4511;50.890;8.054;2023-06-22T08:46:23;24.80;99.90
8953;DHT22;4511;50.890;8.054;2023-06-22T08:48:55;24.80;99.90
8953;DHT22;4511;50.890;8.054;2023-06-22T08:51:23;24.90;99.90
8953;DHT22;4511;50.890;8.054;2023-06-22T08:53:50;24.90;99.90
8953;DHT22;4511;50.890;8.054;2023-06-22T08:56:17;24.90;99.90
8953;DHT22;4511;50.890;8.054;2023-06-22T08:58:45;24.90;99.90
8953;DHT22;4511;50.890;8.054;2023-06-22T09:01:12;24.90;99.90
8953;DHT22;4511;50.890;8.054;2023-06-22T09:03:41;24.90;99.90
8953;DHT22;4511;50.890;8.054;2023-06-22T09:06:07;25.10;99.90
8953;DHT22;4511;50.890;8.054;2023-06-22T09:08:35;25.20;99.90
8953;DHT22;4511;50.890;8.054;2023-06-22T09:13:30;25.40;99.90
8953;DHT22;4511;50.890;8.054;2023-06-22T09:18:26;25.70;99.90
8953;DHT22;4511;50.890;8.054;2023-06-22T09:20:52;25.70;99.90
8953;DHT22;4511;50.890;8.054;2023-06-22T09:23:19;25.70;99.90
8953;DHT22;4511;50.890;8.054;2023-06-22T09:25:46;25.80;99.90
8953;DHT22;4511;50.890;8.054;2023-06-22T09:28:13;25.90;99.90
8953;DHT22;4511;50.890;8.054;2023-06-22T09:30:40;25.90;99.90
8953;DHT22;4511;50.890;8.054;2023-06-22T09:35:36;26.10;99.90
8953;DHT22;4511;50.890;8.054;2023-06-22T09:38:02;26.20;99.90
8953;DHT22;4511;50.890;8.054;2023-06-22T09:40:29;26.30;99.90
8953;DHT22;4511;50.890;8.054;2023-06-22T09:42:58;26.40;99.90
8953;DHT22;4511;50.890;8.054;2023-06-22T09:45:24;26.50;99.90
8953;DHT22;4511;50.890;8.054;2023-06-22T09:47:51;26.60;99.90
8953;DHT22;4511;50.890;8.054;2023-06-22T09:50:20;26.40;99.90
8953;DHT22;4511;50.890;8.054;2023-06-22T09:52:46;26.60;99.90
8953;DHT22;4511;50.890;8.054;2023-06-22T09:55:17;26.70;99.90
8953;DHT22;4511;50.890;8.054;2023-06-22T09:57:44;26.80;99.90
8953;DHT22;4511;50.890;8.054;2023-06-22T10:00:12;26.90;99.90
8953;DHT22;4511;50.890;8.054;2023-06-22T10:24:52;27.40;99.90
8953;DHT22;4511;50.890;8.054;2023-06-22T10:27:19;27.40;99.90
8953;DHT22;4511;50.890;8.054;2023-06-22T10:29:46;27.30;99.90
8953;DHT22;4511;50.890;8.054;2023-06-22T10:32:15;27.30;99.90
8953;DHT22;4511;50.890;8.054;2023-06-22T10:34:41;27.20;99.90
8953;DHT22;4511;50.890;8.054;2023-06-22T10:37:08;27.10;99.90
8953;DHT22;4511;50.890;8.054;2023-06-22T10:39:35;27.10;99.90
8953;DHT22;4511;50.890;8.054;2023-06-22T10:42:04;27.30;99.90
8953;DHT22;4511;50.890;8.054;2023-06-22T10:44:31;27.20;99.90
8953;DHT22;4511;50.890;8.054;2023-06-22T10:46:57;27.20;99.90
8953;DHT22;4511;50.890;8.054;2023-06-22T10:49:24;27.00;99.90
8953;DHT22;4511;50.890;8.054;2023-06-22T10:51:51;26.80;99.90
8953;DHT22;4511;50.890;8.054;2023-06-22T10:54:18;26.60;99.90
8953;DHT22;4511;50.890;8.054;2023-06-22T10:56:44;26.40;99.90
8953;DHT22;4511;50.890;8.054;2023-06-22T10:59:12;26.30;99.90
8953;DHT22;4511;50.890;8.054;2023-06-22T11:01:39;26.10;99.90
8953;DHT22;4511;50.890;8.054;2023-06-22T11:04:06;26.10;99.90
8953;DHT22;4511;50.890;8.054;2023-06-22T11:06:33;25.90;99.90
8953;DHT22;4511;50.890;8.054;2023-06-22T11:09:00;25.80;99.90
8953;DHT22;4511;50.890;8.054;2023-06-22T11:11:26;25.70;99.90
8953;DHT22;4511;50.890;8.054;2023-06-22T11:13:53;25.70;99.90
8953;DHT22;4511;50.890;8.054;2023-06-22T11:16:21;25.50;99.90
8953;DHT22;4511;50.890;8.054;2023-06-22T11:18:48;25.50;99.90
8953;DHT22;4511;50.890;8.054;2023-06-22T11:21:15;25.40;99.90
8953;DHT22;4511;50.890;8.054;2023-06-22T11:23:42;25.30;99.90
8953;DHT22;4511;50.890;8.054;2023-06-22T11:26:08;25.30;99.90
8953;DHT22;4511;50.890;8.054;2023-06-22T11:28:35;25.40;99.90
8953;DHT22;4511;50.890;8.054;2023-06-22T11:31:03;25.20;99.90
8953;DHT22;4511;50.890;8.054;2023-06-22T11:33:31;25.10;99.90
8953;DHT22;4511;50.890;8.054;2023-06-22T11:35:58;25.10;99.90
8953;DHT22;4511;50.890;8.054;2023-06-22T11:38:25;25.10;99.90
8953;DHT22;4511;50.890;8.054;2023-06-22T11:40:52;25.00;99.90
8953;DHT22;4511;50.890;8.054;2023-06-22T11:43:18;25.00;99.90
8953;DHT22;4511;50.890;8.054;2023-06-22T11:45:45;25.00;99.90
8953;DHT22;4511;50.890;8.054;2023-06-22T11:48:12;25.10;99.90
8953;DHT22;4511;50.890;8.054;2023-06-22T11:50:40;25.20;99.90
8953;DHT22;4511;50.890;8.054;2023-06-22T11:53:07;25.30;99.90
8953;DHT22;4511;50.890;8.054;2023-06-22T11:55:34;25.40;99.90
8953;DHT22;4511;50.890;8.054;2023-06-22T11:58:01;25.50;99.90
8953;DHT22;4511;50.890;8.054;2023-06-22T12:00:29;25.50;99.90
8953;DHT22;4511;50.890;8.054;2023-06-22T12:02:56;25.50;99.90
8953;DHT22;4511;50.890;8.054;2023-06-22T12:05:22;25.60;99.90
8953;DHT22;4511;50.890;8.054;2023-06-22T12:07:53;25.60;99.90
8953;DHT22;4511;50.890;8.054;2023-06-22T12:10:20;25.60;99.90
8953;DHT22;4511;50.890;8.054;2023-06-22T12:12:47;25.70;99.90
8953;DHT22;4511;50.890;8.054;2023-06-22T12:15:14;25.70;99.90
8953;DHT22;4511;50.890;8.054;2023-06-22T12:17:41;25.60;99.90
8953;DHT22;4511;50.890;8.054;2023-06-22T12:20:08;25.60;99.90
8953;DHT22;4511;50.890;8.054;2023-06-22T12:22:35;25.50;99.90
8953;DHT22;4511;50.890;8.054;2023-06-22T12:25:05;25.20;99.90
8953;DHT22;4511;50.890;8.054;2023-06-22T12:27:32;24.40;99.90
8953;DHT22;4511;50.890;8.054;2023-06-22T12:29:59;23.90;99.90
8953;DHT22;4511;50.890;8.054;2023-06-22T12:32:26;24.20;99.90
8953;DHT22;4511;50.890;8.054;2023-06-22T12:34:52;24.50;99.90
8953;DHT22;4511;50.890;8.054;2023-06-22T12:37:19;24.80;99.90
8953;DHT22;4511;50.890;8.054;2023-06-22T12:39:46;25.00;99.90
8953;DHT22;4511;50.890;8.054;2023-06-22T12:42:15;25.20;99.90
8953;DHT22;4511;50.890;8.054;2023-06-22T12:44:41;25.50;99.90
8953;DHT22;4511;50.890;8.054;2023-06-22T12:47:09;25.70;99.90
8953;DHT22;4511;50.890;8.054;2023-06-22T12:49:36;25.80;99.90
8953;DHT22;4511;50.890;8.054;2023-06-22T12:52:08;26.00;99.90
8953;DHT22;4511;50.890;8.054;2023-06-22T12:54:35;26.40;99.90
8953;DHT22;4511;50.890;8.054;2023-06-22T12:57:01;26.90;99.90
8953;DHT22;4511;50.890;8.054;2023-06-22T12:59:29;27.10;99.90
8953;DHT22;4511;50.890;8.054;2023-06-22T13:01:56;27.80;99.90
8953;DHT22;4511;50.890;8.054;2023-06-22T13:04:23;28.30;99.90
8953;DHT22;4511;50.890;8.054;2023-06-22T13:06:50;28.60;99.90
8953;DHT22;4511;50.890;8.054;2023-06-22T13:09:18;28.50;99.90
8953;DHT22;4511;50.890;8.054;2023-06-22T13:11:45;28.60;99.90
8953;DHT22;4511;50.890;8.054;2023-06-22T13:14:12;28.50;99.90
8953;DHT22;4511;50.890;8.054;2023-06-22T13:16:40;28.70;99.90
8953;DHT22;4511;50.890;8.054;2023-06-22T13:19:06;28.70;99.90
8953;DHT22;4511;50.890;8.054;2023-06-22T13:21:33;28.80;99.90
8953;DHT22;4511;50.890;8.054;2023-06-22T13:24:00;28.30;99.90
8953;DHT22;4511;50.890;8.054;2023-06-22T13:26:27;28.30;99.90
8953;DHT22;4511;50.890;8.054;2023-06-22T13:28:56;27.80;99.90
8953;DHT22;4511;50.890;8.054;2023-06-22T13:31:23;27.50;99.90
8953;DHT22;4511;50.890;8.054;2023-06-22T13:33:51;27.60;99.90
8953;DHT22;4511;50.890;8.054;2023-06-22T13:36:18;27.50;99.90
8953;DHT22;4511;50.890;8.054;2023-06-22T13:38:45;27.60;99.90
8953;DHT22;4511;50.890;8.054;2023-06-22T13:41:12;27.50;99.90
8953;DHT22;4511;50.890;8.054;2023-06-22T13:43:39;27.90;99.90
8953;DHT22;4511;50.890;8.054;2023-06-22T13:46:06;28.60;99.90
8953;DHT22;4511;50.890;8.054;2023-06-22T13:48:32;29.20;99.90
8953;DHT22;4511;50.890;8.054;2023-06-22T13:51:01;29.30;99.90
8953;DHT22;4511;50.890;8.054;2023-06-22T13:53:27;29.60;99.90
8953;DHT22;4511;50.890;8.054;2023-06-22T13:55:55;30.00;99.90
8953;DHT22;4511;50.890;8.054;2023-06-22T13:58:22;29.70;99.90
8953;DHT22;4511;50.890;8.054;2023-06-22T14:00:49;29.60;99.90
8953;DHT22;4511;50.890;8.054;2023-06-22T14:03:16;29.60;99.90
8953;DHT22;4511;50.890;8.054;2023-06-22T14:05:43;30.00;99.90
8953;DHT22;4511;50.890;8.054;2023-06-22T14:08:11;30.10;99.90
8953;DHT22;4511;50.890;8.054;2023-06-22T14:10:38;30.10;99.90
8953;DHT22;4511;50.890;8.054;2023-06-22T14:13:05;29.70;99.90
8953;DHT22;4511;50.890;8.054;2023-06-22T14:15:32;29.20;99.90
8953;DHT22;4511;50.890;8.054;2023-06-22T14:17:59;28.70;99.90
8953;DHT22;4511;50.890;8.054;2023-06-22T14:20:25;28.40;99.90
8953;DHT22;4511;50.890;8.054;2023-06-22T14:22:52;28.30;99.90
8953;DHT22;4511;50.890;8.054;2023-06-22T14:25:20;28.40;99.90
8953;DHT22;4511;50.890;8.054;2023-06-22T14:27:47;28.00;99.90
8953;DHT22;4511;50.890;8.054;2023-06-22T14:30:14;27.60;99.90
8953;DHT22;4511;50.890;8.054;2023-06-22T14:32:43;27.30;99.90
8953;DHT22;4511;50.890;8.054;2023-06-22T14:35:10;27.10;99.90
8953;DHT22;4511;50.890;8.054;2023-06-22T14:37:37;26.90;99.90
8953;DHT22;4511;50.890;8.054;2023-06-22T14:40:04;26.70;99.90
8953;DHT22;4511;50.890;8.054;2023-06-22T14:42:32;26.60;99.90
8953;DHT22;4511;50.890;8.054;2023-06-22T14:44:59;26.60;99.90
8953;DHT22;4511;50.890;8.054;2023-06-22T14:47:26;26.50;99.90
8953;DHT22;4511;50.890;8.054;2023-06-22T14:49:54;26.30;99.90
8953;DHT22;4511;50.890;8.054;2023-06-22T14:52:20;26.30;99.90
8953;DHT22;4511;50.890;8.054;2023-06-22T14:54:47;26.10;99.90
8953;DHT22;4511;50.890;8.054;2023-06-22T14:57:14;25.90;99.90
8953;DHT22;4511;50.890;8.054;2023-06-22T14:59:44;25.80;99.90
8953;DHT22;4511;50.890;8.054;2023-06-22T15:02:11;25.60;99.90
8953;DHT22;4511;50.890;8.054;2023-06-22T15:04:38;25.50;99.90
8953;DHT22;4511;50.890;8.054;2023-06-22T15:07:05;25.30;99.90
8953;DHT22;4511;50.890;8.054;2023-06-22T15:09:32;24.90;99.90
8953;DHT22;4511;50.890;8.054;2023-06-22T15:11:59;24.70;99.90
8953;DHT22;4511;50.890;8.054;2023-06-22T15:14:26;24.70;99.90
8953;DHT22;4511;50.890;8.054;2023-06-22T15:16:54;24.60;99.90
8953;DHT22;4511;50.890;8.054;2023-06-22T15:19:21;24.50;99.90
8953;DHT22;4511;50.890;8.054;2023-06-22T15:21:48;24.50;99.90
8953;DHT22;4511;50.890;8.054;2023-06-22T15:24:14;23.60;99.90
8953;DHT22;4511;50.890;8.054;2023-06-22T15:26:41;22.90;99.90
8953;DHT22;4511;50.890;8.054;2023-06-22T15:29:09;21.80;99.90
8953;DHT22;4511;50.890;8.054;2023-06-22T15:31:35;21.40;99.90
8953;DHT22;4511;50.890;8.054;2023-06-22T15:34:03;21.60;99.90
8953;DHT22;4511;50.890;8.054;2023-06-22T15:36:30;21.40;99.90
8953;DHT22;4511;50.890;8.054;2023-06-22T15:38:57;20.50;99.90
8953;DHT22;4511;50.890;8.054;2023-06-22T15:41:24;20.20;99.90
8953;DHT22;4511;50.890;8.054;2023-06-22T15:43:51;19.90;99.90
8953;DHT22;4511;50.890;8.054;2023-06-22T15:46:17;20.10;99.90
8953;DHT22;4511;50.890;8.054;2023-06-22T15:48:44;20.40;99.90
8953;DHT22;4511;50.890;8.054;2023-06-22T15:51:13;20.50;99.90
8953;DHT22;4511;50.890;8.054;2023-06-22T15:53:40;20.80;99.90
8953;DHT22;4511;50.890;8.054;2023-06-22T15:56:07;21.00;99.90
8953;DHT22;4511;50.890;8.054;2023-06-22T15:58:35;21.00;99.90
8953;DHT22;4511;50.890;8.054;2023-06-22T16:01:01;21.10;99.90
8953;DHT22;4511;50.890;8.054;2023-06-22T16:03:28;21.20;99.90
8953;DHT22;4511;50.890;8.054;2023-06-22T16:05:55;21.30;99.90
8953;DHT22;4511;50.890;8.054;2023-06-22T16:08:23;21.40;99.90
8953;DHT22;4511;50.890;8.054;2023-06-22T16:10:51;21.40;99.90
8953;DHT22;4511;50.890;8.054;2023-06-22T16:13:17;21.40;99.90
8953;DHT22;4511;50.890;8.054;2023-06-22T16:15:44;21.50;99.90
8953;DHT22;4511;50.890;8.054;2023-06-22T16:18:11;21.50;99.90
8953;DHT22;4511;50.890;8.054;2023-06-22T16:20:38;21.50;99.90
8953;DHT22;4511;50.890;8.054;2023-06-22T16:23:05;21.50;99.90
8953;DHT22;4511;50.890;8.054;2023-06-22T16:25:33;21.40;99.90
8953;DHT22;4511;50.890;8.054;2023-06-22T16:28:00;21.40;99.90
8953;DHT22;4511;50.890;8.054;2023-06-22T16:30:27;21.40;99.90
8953;DHT22;4511;50.890;8.054;2023-06-22T16:32:55;21.40;99.90
8953;DHT22;4511;50.890;8.054;2023-06-22T16:35:23;21.50;99.90
8953;DHT22;4511;50.890;8.054;2023-06-22T16:37:53;21.60;99.90